createdAt,value
2018-05-21T00:00:53.395Z,41.71
2018-05-21T00:01:57.931Z,41.74
2018-05-21T00:03:03.037Z,41.75
2018-05-21T00:04:08.340Z,41.72
2018-05-21T00:05:13.291Z,41.71
2018-05-21T00:06:17.835Z,41.73
2018-05-21T00:07:22.416Z,41.77
2018-05-21T00:08:27.054Z,41.72
2018-05-21T00:09:32.363Z,41.64
2018-05-21T00:10:38.107Z,41.64
2018-05-21T00:11:43.484Z,41.71
2018-05-21T00:12:49.336Z,41.78
2018-05-21T00:13:55.398Z,41.85
2018-05-21T00:15:00.285Z,41.97
2018-05-21T00:16:06.298Z,41.97
2018-05-21T00:17:11.597Z,41.98
2018-05-21T00:18:17.120Z,42.08
2018-05-21T00:19:22.201Z,42.16
2018-05-21T00:20:26.948Z,42.22
2018-05-21T00:21:31.578Z,42.34
2018-05-21T00:22:36.143Z,42.18
2018-05-21T00:23:40.717Z,42.21
2018-05-21T00:24:45.699Z,42.27
2018-05-21T00:25:50.477Z,42.36
2018-05-21T00:26:54.999Z,42.41
2018-05-21T00:27:59.724Z,42.44
2018-05-21T00:29:04.699Z,42.31
2018-05-21T00:30:09.772Z,42.23
2018-05-21T00:31:15.429Z,42.20
2018-05-21T00:32:21.245Z,42.24
2018-05-21T00:33:26.385Z,42.24
2018-05-21T00:34:32.387Z,42.22
2018-05-21T00:35:37.424Z,42.22
2018-05-21T00:36:42.140Z,42.20
2018-05-21T00:37:47.186Z,42.25
2018-05-21T00:38:51.746Z,42.30
2018-05-21T00:39:56.298Z,42.36
2018-05-21T00:41:00.827Z,42.38
2018-05-21T00:42:05.352Z,42.40
2018-05-21T00:43:09.848Z,42.38
2018-05-21T00:44:14.974Z,42.33
2018-05-21T00:45:19.595Z,42.28
2018-05-21T00:46:25.113Z,42.29
2018-05-21T00:47:29.962Z,42.37
2018-05-21T00:48:35.841Z,42.32
2018-05-21T00:49:41.467Z,42.29
2018-05-21T00:50:47.098Z,42.27
2018-05-21T00:51:52.387Z,42.30
2018-05-21T00:52:58.210Z,42.29
2018-05-21T00:54:03.459Z,42.27
2018-05-21T00:55:12.229Z,42.27
2018-05-21T00:56:17.909Z,42.30
2018-05-21T00:57:22.609Z,42.25
2018-05-21T00:58:27.480Z,42.23
2018-05-21T00:59:32.526Z,42.24
2018-05-21T01:00:38.315Z,42.23
2018-05-21T01:01:43.758Z,42.21
2018-05-21T01:02:49.849Z,42.21
2018-05-21T01:03:54.817Z,42.21
2018-05-21T01:05:00.901Z,42.15
2018-05-21T01:06:06.904Z,42.21
2018-05-21T01:07:13.402Z,42.19
2018-05-21T01:08:18.803Z,42.26
2018-05-21T01:09:24.651Z,42.29
2018-05-21T01:10:30.215Z,42.41
2018-05-21T01:11:35.468Z,42.34
2018-05-21T01:12:40.543Z,42.39
2018-05-21T01:13:45.635Z,42.41
2018-05-21T01:14:52.028Z,42.36
2018-05-21T01:15:57.607Z,42.46
2018-05-21T01:17:04.203Z,42.46
2018-05-21T01:18:09.546Z,42.45
2018-05-21T01:19:15.423Z,42.39
2018-05-21T01:20:21.442Z,42.44
2018-05-21T01:21:26.317Z,42.47
2018-05-21T01:22:32.090Z,42.58
2018-05-21T01:23:37.274Z,42.68
2018-05-21T01:24:42.284Z,42.84
2018-05-21T01:25:47.093Z,42.83
2018-05-21T01:26:52.427Z,42.87
2018-05-21T01:27:57.299Z,42.96
2018-05-21T01:29:02.721Z,42.88
2018-05-21T01:30:07.262Z,42.99
2018-05-21T01:31:11.798Z,43.11
2018-05-21T01:32:16.478Z,43.24
2018-05-21T01:33:21.396Z,43.18
2018-05-21T01:34:25.877Z,43.23
2018-05-21T01:35:31.571Z,43.24
2018-05-21T01:36:37.089Z,43.27
2018-05-21T01:37:42.008Z,43.30
2018-05-21T01:38:46.883Z,43.35
2018-05-21T01:39:52.796Z,43.44
2018-05-21T01:40:59.892Z,43.51
2018-05-21T01:42:06.409Z,43.53
2018-05-21T01:43:11.246Z,43.71
2018-05-21T01:44:16.253Z,43.87
2018-05-21T01:45:21.994Z,43.78
2018-05-21T01:46:27.815Z,43.66
2018-05-21T01:47:33.654Z,43.67
2018-05-21T01:48:39.019Z,43.69
2018-05-21T01:49:44.090Z,43.66
2018-05-21T01:50:48.925Z,43.72
2018-05-21T01:51:53.622Z,43.83
2018-05-21T01:52:58.185Z,43.79
2018-05-21T01:54:02.816Z,43.85
2018-05-21T01:55:07.809Z,43.92
2018-05-21T01:56:12.398Z,43.92
2018-05-21T01:57:16.984Z,43.95
2018-05-21T01:58:21.934Z,44.05
2018-05-21T01:59:27.188Z,43.99
2018-05-21T02:00:32.567Z,43.97
2018-05-21T02:01:39.135Z,44.09
2018-05-21T02:02:44.981Z,44.08
2018-05-21T02:03:51.364Z,44.18
2018-05-21T02:04:57.333Z,44.21
2018-05-21T02:06:03.183Z,44.33
2018-05-21T02:07:08.362Z,44.40
2018-05-21T02:08:13.996Z,44.51
2018-05-21T02:09:19.606Z,44.62
2018-05-21T02:10:25.003Z,44.65
2018-05-21T02:11:30.568Z,44.66
2018-05-21T02:12:36.018Z,44.73
2018-05-21T02:13:42.049Z,44.75
2018-05-21T02:14:48.820Z,44.75
2018-05-21T02:15:54.561Z,44.86
2018-05-21T02:16:59.570Z,44.76
2018-05-21T02:18:05.651Z,44.77
2018-05-21T02:19:11.780Z,44.92
2018-05-21T02:20:17.617Z,45.07
2018-05-21T02:21:23.161Z,45.14
2018-05-21T02:22:29.448Z,45.08
2018-05-21T02:23:34.378Z,45.09
2018-05-21T02:24:39.711Z,45.06
2018-05-21T02:25:45.701Z,45.18
2018-05-21T02:26:52.745Z,45.17
2018-05-21T02:27:58.300Z,45.25
2018-05-21T02:29:04.632Z,45.27
2018-05-21T02:30:10.320Z,45.28
2018-05-21T02:31:15.821Z,45.29
2018-05-21T02:32:20.909Z,45.23
2018-05-21T02:33:28.234Z,45.24
2018-05-21T02:34:32.892Z,45.27
2018-05-21T02:35:38.116Z,45.33
2018-05-21T02:36:44.324Z,45.42
2018-05-21T02:37:50.130Z,45.41
2018-05-21T02:38:55.709Z,45.45
2018-05-21T02:40:00.925Z,45.49
2018-05-21T02:41:06.411Z,45.53
2018-05-21T02:42:11.690Z,45.55
2018-05-21T02:43:16.866Z,45.63
2018-05-21T02:44:23.059Z,45.65
2018-05-21T02:45:29.439Z,45.76
2018-05-21T02:46:35.112Z,45.79
2018-05-21T02:47:41.291Z,45.85
2018-05-21T02:48:47.205Z,45.92
2018-05-21T02:49:52.831Z,45.94
2018-05-21T02:50:57.717Z,46.08
2018-05-21T02:52:08.752Z,46.10
2018-05-21T02:53:13.202Z,46.19
2018-05-21T02:54:17.752Z,46.24
2018-05-21T02:55:22.647Z,46.32
2018-05-21T02:56:27.733Z,46.42
2018-05-21T02:57:32.853Z,46.47
2018-05-21T02:58:38.383Z,46.59
2018-05-21T02:59:44.248Z,46.66
2018-05-21T03:00:49.446Z,46.68
2018-05-21T03:01:55.222Z,46.72
2018-05-21T03:03:00.007Z,46.80
2018-05-21T03:04:04.535Z,46.91
2018-05-21T03:05:09.438Z,47.01
2018-05-21T03:06:14.131Z,47.16
2018-05-21T03:07:18.649Z,47.30
2018-05-21T03:08:23.111Z,47.35
2018-05-21T03:09:27.631Z,47.40
2018-05-21T03:10:32.277Z,47.51
2018-05-21T03:11:37.809Z,47.60
2018-05-21T03:12:42.870Z,47.71
2018-05-21T03:13:47.971Z,47.80
2018-05-21T03:14:53.017Z,47.88
2018-05-21T03:15:57.897Z,47.98
2018-05-21T03:17:02.767Z,48.07
2018-05-21T03:18:07.731Z,48.19
2018-05-21T03:19:12.250Z,48.27
2018-05-21T03:20:16.746Z,48.33
2018-05-21T03:21:21.256Z,48.44
2018-05-21T03:22:25.762Z,48.46
2018-05-21T03:23:30.495Z,48.56
2018-05-21T03:24:35.800Z,48.65
2018-05-21T03:25:42.125Z,48.73
2018-05-21T03:26:47.712Z,48.90
2018-05-21T03:27:52.684Z,48.92
2018-05-21T03:28:57.463Z,48.96
2018-05-21T03:30:02.052Z,49.19
2018-05-21T03:31:06.983Z,49.27
2018-05-21T03:32:11.463Z,49.36
2018-05-21T03:33:15.991Z,49.47
2018-05-21T03:34:20.530Z,49.50
2018-05-21T03:35:25.914Z,49.58
2018-05-21T03:36:31.512Z,49.62
2018-05-21T03:37:37.052Z,49.69
2018-05-21T03:38:42.361Z,49.76
2018-05-21T03:39:47.254Z,49.80
2018-05-21T03:40:52.707Z,49.90
2018-05-21T03:41:57.717Z,49.99
2018-05-21T03:43:03.093Z,50.00
2018-05-21T03:44:08.873Z,50.11
2018-05-21T03:45:14.202Z,50.19
2018-05-21T03:46:19.297Z,50.28
2018-05-21T03:47:23.845Z,50.37
2018-05-21T03:48:28.402Z,50.36
2018-05-21T03:49:32.917Z,50.46
2018-05-21T03:50:37.813Z,50.52
2018-05-21T03:51:42.312Z,50.61
2018-05-21T03:52:47.666Z,50.61
2018-05-21T03:53:52.477Z,50.65
2018-05-21T03:54:58.504Z,50.69
2018-05-21T03:56:03.727Z,50.73
2018-05-21T03:57:08.731Z,50.81
2018-05-21T03:58:17.471Z,50.86
2018-05-21T04:01:28.218Z,50.95
2018-05-21T04:02:38.422Z,51.16
2018-05-21T04:03:47.283Z,51.24
2018-05-21T04:04:51.830Z,51.36
2018-05-21T04:05:56.354Z,51.37
2018-05-21T04:07:01.108Z,51.41
2018-05-21T04:08:06.701Z,51.46
2018-05-21T04:09:13.251Z,51.44
2018-05-21T04:10:18.491Z,51.47
2018-05-21T04:11:25.054Z,51.49
2018-05-21T04:12:30.434Z,51.73
2018-05-21T04:13:35.970Z,51.76
2018-05-21T04:14:41.651Z,51.78
2018-05-21T04:15:48.378Z,51.80
2018-05-21T04:16:54.779Z,51.81
2018-05-21T04:17:59.953Z,51.84
2018-05-21T04:19:05.385Z,51.85
2018-05-21T04:20:11.238Z,51.98
2018-05-21T04:21:16.564Z,51.97
2018-05-21T04:22:22.953Z,51.97
2018-05-21T04:23:28.181Z,52.06
2018-05-21T04:24:33.816Z,52.02
2018-05-21T04:25:39.472Z,52.00
2018-05-21T04:26:45.341Z,52.04
2018-05-21T04:27:51.270Z,52.18
2018-05-21T04:28:56.906Z,52.24
2018-05-21T04:30:02.697Z,52.27
2018-05-21T04:31:08.549Z,52.27
2018-05-21T04:32:15.876Z,52.36
2018-05-21T04:33:20.929Z,52.39
2018-05-21T04:34:25.438Z,52.44
2018-05-21T04:35:31.577Z,52.56
2018-05-21T04:36:36.116Z,52.52
2018-05-21T04:37:40.582Z,52.54
2018-05-21T04:38:45.038Z,52.52
2018-05-21T04:39:49.538Z,52.58
2018-05-21T04:40:54.137Z,52.58
2018-05-21T04:41:59.131Z,52.54
2018-05-21T04:43:03.743Z,52.62
2018-05-21T04:44:08.330Z,52.72
2018-05-21T04:45:12.875Z,52.81
2018-05-21T04:46:17.515Z,52.83
2018-05-21T04:47:23.138Z,52.89
2018-05-21T04:48:29.065Z,52.89
2018-05-21T04:49:33.645Z,52.92
2018-05-21T04:50:38.226Z,52.97
2018-05-21T04:51:42.823Z,52.99
2018-05-21T04:52:47.408Z,53.04
2018-05-21T04:53:52.030Z,53.06
2018-05-21T04:54:56.950Z,52.96
2018-05-21T04:56:01.540Z,52.95
2018-05-21T04:57:06.118Z,52.98
2018-05-21T04:58:10.693Z,53.13
2018-05-21T04:59:15.289Z,53.18
2018-05-21T05:00:19.850Z,53.11
2018-05-21T05:01:24.441Z,53.04
2018-05-21T05:02:29.077Z,53.08
2018-05-21T05:03:33.697Z,53.08
2018-05-21T05:04:38.240Z,53.12
2018-05-21T05:05:42.884Z,53.13
2018-05-21T05:06:48.280Z,53.13
2018-05-21T05:07:53.311Z,53.13
2018-05-21T05:08:57.880Z,53.04
2018-05-21T05:10:03.027Z,53.10
2018-05-21T05:11:07.595Z,53.13
2018-05-21T05:12:12.221Z,53.12
2018-05-21T05:13:16.781Z,53.10
2018-05-21T05:14:21.812Z,53.13
2018-05-21T05:15:26.396Z,53.06
2018-05-21T05:16:30.973Z,53.20
2018-05-21T05:17:35.550Z,53.16
2018-05-21T05:18:40.214Z,53.11
2018-05-21T05:19:44.762Z,53.11
2018-05-21T05:20:49.716Z,53.03
2018-05-21T05:21:54.311Z,52.92
2018-05-21T05:23:00.278Z,52.98
2018-05-21T05:24:04.885Z,52.99
2018-05-21T05:25:09.520Z,53.10
2018-05-21T05:26:14.180Z,53.12
2018-05-21T05:27:20.061Z,52.97
2018-05-21T05:28:24.570Z,52.85
2018-05-21T05:29:29.037Z,52.94
2018-05-21T05:30:33.550Z,52.97
2018-05-21T05:31:38.068Z,52.96
2018-05-21T05:32:42.556Z,52.78
2018-05-21T05:33:47.582Z,52.82
2018-05-21T05:34:52.157Z,52.78
2018-05-21T05:35:56.769Z,52.82
2018-05-21T05:37:01.386Z,52.79
2018-05-21T05:38:05.951Z,52.70
2018-05-21T05:39:10.646Z,52.83
2018-05-21T05:40:15.600Z,52.76
2018-05-21T05:41:20.251Z,52.66
2018-05-21T05:42:24.828Z,52.63
2018-05-21T05:43:29.425Z,52.47
2018-05-21T05:44:34.014Z,52.50
2018-05-21T05:45:38.697Z,52.48
2018-05-21T05:46:43.759Z,52.50
2018-05-21T05:47:48.350Z,52.55
2018-05-21T05:48:53.048Z,52.52
2018-05-21T05:49:57.625Z,52.44
2018-05-21T05:51:02.267Z,52.39
2018-05-21T05:52:06.814Z,52.35
2018-05-21T05:53:12.881Z,52.41
2018-05-21T05:54:17.461Z,52.43
2018-05-21T05:55:23.000Z,52.24
2018-05-21T05:56:27.668Z,52.12
2018-05-21T05:57:32.217Z,52.34
2018-05-21T05:58:36.791Z,52.24
2018-05-21T05:59:41.782Z,52.23
2018-05-21T06:00:46.374Z,52.16
2018-05-21T06:01:50.976Z,52.11
2018-05-21T06:02:56.559Z,52.10
2018-05-21T06:04:01.150Z,52.00
2018-05-21T06:05:05.778Z,51.93
2018-05-21T06:06:12.084Z,51.93
2018-05-21T06:07:17.173Z,51.98
2018-05-21T06:08:21.805Z,51.92
2018-05-21T06:09:26.405Z,51.88
2018-05-21T06:10:30.965Z,51.81
2018-05-21T06:11:35.604Z,51.71
2018-05-21T06:12:40.453Z,51.59
2018-05-21T06:13:45.027Z,51.63
2018-05-21T06:14:49.575Z,51.55
2018-05-21T06:15:54.046Z,51.50
2018-05-21T06:16:58.658Z,51.40
2018-05-21T06:18:03.279Z,51.20
2018-05-21T06:19:08.138Z,51.24
2018-05-21T06:20:12.748Z,51.20
2018-05-21T06:21:17.381Z,51.22
2018-05-21T06:22:23.078Z,51.15
2018-05-21T06:23:28.182Z,50.95
2018-05-21T06:24:32.805Z,50.97
2018-05-21T06:25:37.726Z,50.92
2018-05-21T06:26:42.990Z,50.84
2018-05-21T06:27:47.489Z,50.86
2018-05-21T06:28:52.110Z,50.74
2018-05-21T06:29:56.732Z,50.75
2018-05-21T06:31:01.345Z,50.64
2018-05-21T06:32:06.285Z,50.48
2018-05-21T06:33:10.872Z,50.42
2018-05-21T06:34:15.498Z,50.21
2018-05-21T06:35:20.100Z,50.26
2018-05-21T06:36:24.737Z,50.33
2018-05-21T06:37:29.610Z,50.17
2018-05-21T06:38:34.530Z,50.19
2018-05-21T06:39:39.077Z,50.08
2018-05-21T06:40:43.655Z,49.85
2018-05-21T06:41:48.227Z,49.91
2018-05-21T06:42:52.832Z,50.07
2018-05-21T06:43:57.393Z,49.77
2018-05-21T06:45:02.311Z,49.70
2018-05-21T06:46:07.294Z,49.67
2018-05-21T06:47:11.884Z,49.47
2018-05-21T06:48:17.229Z,49.43
2018-05-21T06:49:21.862Z,49.42
2018-05-21T06:50:26.368Z,49.53
2018-05-21T06:51:31.281Z,49.66
2018-05-21T06:52:35.881Z,49.76
2018-05-21T06:53:41.188Z,49.64
2018-05-21T06:54:45.743Z,49.43
2018-05-21T06:55:50.295Z,49.08
2018-05-21T06:56:54.787Z,49.24
2018-05-21T06:57:59.646Z,49.21
2018-05-21T06:59:04.375Z,48.85
2018-05-21T07:00:08.848Z,48.73
2018-05-21T07:01:13.542Z,48.76
2018-05-21T07:02:18.085Z,48.74
2018-05-21T07:03:22.687Z,48.55
2018-05-21T07:04:27.689Z,48.44
2018-05-21T07:05:32.135Z,48.37
2018-05-21T07:06:36.689Z,48.29
2018-05-21T07:07:41.280Z,48.26
2018-05-21T07:08:47.505Z,47.75
2018-05-21T07:09:52.090Z,47.65
2018-05-21T07:10:57.058Z,47.74
2018-05-21T07:12:02.473Z,47.89
2018-05-21T07:13:07.043Z,47.81
2018-05-21T07:14:11.617Z,47.86
2018-05-21T07:15:16.226Z,47.74
2018-05-21T07:16:21.204Z,47.50
2018-05-21T07:17:26.202Z,47.41
2018-05-21T07:18:30.748Z,47.38
2018-05-21T07:19:35.321Z,47.18
2018-05-21T07:20:39.938Z,46.80
2018-05-21T07:21:44.548Z,46.65
2018-05-21T07:22:49.248Z,46.84
2018-05-21T07:23:53.932Z,46.85
2018-05-21T07:24:58.486Z,46.62
2018-05-21T07:26:04.460Z,46.55
2018-05-21T07:27:09.348Z,46.33
2018-05-21T07:28:13.827Z,46.36
2018-05-21T07:29:18.649Z,46.30
2018-05-21T07:30:23.196Z,46.05
2018-05-21T07:31:27.837Z,45.94
2018-05-21T07:32:32.432Z,45.76
2018-05-21T07:33:37.000Z,45.65
2018-05-21T07:34:42.052Z,45.47
2018-05-21T07:35:46.610Z,45.12
2018-05-21T07:36:51.119Z,45.11
2018-05-21T07:37:55.793Z,45.22
2018-05-21T07:39:00.303Z,45.11
2018-05-21T07:40:04.946Z,45.00
2018-05-21T07:41:09.900Z,44.83
2018-05-21T07:42:14.558Z,44.83
2018-05-21T07:43:19.159Z,44.69
2018-05-21T07:44:23.693Z,44.75
2018-05-21T07:45:28.269Z,44.65
2018-05-21T07:46:34.212Z,44.63
2018-05-21T07:47:39.769Z,44.42
2018-05-21T07:48:44.454Z,44.26
2018-05-21T07:49:49.237Z,44.31
2018-05-21T07:50:54.111Z,44.11
2018-05-21T07:51:58.709Z,44.08
2018-05-21T07:53:03.311Z,44.06
2018-05-21T07:54:08.171Z,44.01
2018-05-21T07:55:12.701Z,43.60
2018-05-21T07:56:17.368Z,43.39
2018-05-21T07:57:22.006Z,43.63
2018-05-21T07:58:26.999Z,43.35
2018-05-21T07:59:31.554Z,43.31
2018-05-21T08:00:36.518Z,43.36
2018-05-21T08:01:41.159Z,43.06
2018-05-21T08:02:45.711Z,43.11
2018-05-21T08:03:50.301Z,43.07
2018-05-21T08:04:54.904Z,43.11
2018-05-21T08:05:59.465Z,43.17
2018-05-21T08:07:04.369Z,43.20
2018-05-21T08:08:08.965Z,43.07
2018-05-21T08:09:13.570Z,42.85
2018-05-21T08:10:18.386Z,42.83
2018-05-21T08:11:22.964Z,42.60
2018-05-21T08:12:27.506Z,42.45
2018-05-21T08:13:32.374Z,42.54
2018-05-21T08:14:36.987Z,42.29
2018-05-21T08:15:41.608Z,42.51
2018-05-21T08:16:46.224Z,42.37
2018-05-21T08:17:51.021Z,42.32
2018-05-21T08:18:55.685Z,42.37
2018-05-21T08:20:00.580Z,42.42
2018-05-21T08:21:05.162Z,41.61
2018-05-21T08:22:09.725Z,41.33
2018-05-21T08:23:14.393Z,41.39
2018-05-21T08:24:18.976Z,41.52
2018-05-21T08:25:23.555Z,41.55
2018-05-21T08:26:28.409Z,41.45
2018-05-21T08:27:32.995Z,41.25
2018-05-21T08:28:37.589Z,41.31
2018-05-21T08:29:42.233Z,41.20
2018-05-21T08:30:47.825Z,41.51
2018-05-21T08:31:53.331Z,41.19
2018-05-21T08:33:00.285Z,41.31
2018-05-21T08:34:05.879Z,41.04
2018-05-21T08:35:11.381Z,40.99
2018-05-21T08:36:17.052Z,40.66
2018-05-21T08:37:22.601Z,40.70
2018-05-21T08:38:28.380Z,40.92
2018-05-21T08:39:34.505Z,40.69
2018-05-21T08:40:39.984Z,40.61
2018-05-21T08:41:45.591Z,40.50
2018-05-21T08:42:51.272Z,40.47
2018-05-21T08:43:56.637Z,40.36
2018-05-21T08:45:02.933Z,40.00
2018-05-21T08:46:08.589Z,40.26
2018-05-21T08:47:14.209Z,40.57
2018-05-21T08:48:20.094Z,40.69
2018-05-21T08:49:25.512Z,40.49
2018-05-21T08:50:31.019Z,40.13
2018-05-21T08:51:36.740Z,40.01
2018-05-21T08:52:42.611Z,40.22
2018-05-21T08:53:49.032Z,40.18
2018-05-21T08:54:55.143Z,39.65
2018-05-21T08:56:00.624Z,39.51
2018-05-21T08:57:06.109Z,39.65
2018-05-21T08:58:12.077Z,39.63
2018-05-21T08:59:17.601Z,39.67
2018-05-21T09:00:23.177Z,39.54
2018-05-21T09:01:30.033Z,39.50
2018-05-21T09:02:35.770Z,39.32
2018-05-21T09:03:41.391Z,39.32
2018-05-21T09:04:47.377Z,39.55
2018-05-21T09:05:53.283Z,39.71
2018-05-21T09:06:58.813Z,39.24
2018-05-21T09:08:04.442Z,39.19
2018-05-21T09:09:09.569Z,39.23
2018-05-21T09:10:16.421Z,39.21
2018-05-21T09:11:24.355Z,39.09
2018-05-21T09:12:30.208Z,39.13
2018-05-21T09:13:36.637Z,39.18
2018-05-21T09:14:42.097Z,39.06
2018-05-21T09:15:47.804Z,38.98
2018-05-21T09:16:55.207Z,38.83
2018-05-21T09:18:01.305Z,38.75
2018-05-21T09:19:06.746Z,38.68
2018-05-21T09:20:12.329Z,38.54
2018-05-21T09:21:17.741Z,38.48
2018-05-21T09:22:23.535Z,38.30
2018-05-21T09:23:28.840Z,38.39
2018-05-21T09:24:34.493Z,38.63
2018-05-21T09:25:39.961Z,38.61
2018-05-21T09:26:45.374Z,38.15
2018-05-21T09:27:50.641Z,37.96
2018-05-21T09:28:56.096Z,37.95
2018-05-21T09:30:01.523Z,37.72
2018-05-21T09:31:07.444Z,37.71
2018-05-21T09:32:14.105Z,37.75
2018-05-21T09:33:20.183Z,37.86
2018-05-21T09:34:25.760Z,37.93
2018-05-21T09:35:31.007Z,37.89
2018-05-21T09:36:37.305Z,38.04
2018-05-21T09:37:43.103Z,37.91
2018-05-21T09:38:48.510Z,37.89
2018-05-21T09:39:54.649Z,38.03
2018-05-21T09:41:00.435Z,37.99
2018-05-21T09:42:05.849Z,37.77
2018-05-21T09:43:11.385Z,37.70
2018-05-21T09:44:16.299Z,37.60
2018-05-21T09:45:20.937Z,37.74
2018-05-21T09:46:25.608Z,37.67
2018-05-21T09:47:30.200Z,37.73
2018-05-21T09:48:34.949Z,37.43
2018-05-21T09:49:39.858Z,37.12
2018-05-21T09:50:44.754Z,37.07
2018-05-21T09:51:49.391Z,37.34
2018-05-21T09:52:53.973Z,37.63
2018-05-21T09:53:58.575Z,38.00
2018-05-21T09:55:03.177Z,37.99
2018-05-21T09:56:07.918Z,37.95
2018-05-21T09:57:13.086Z,37.72
2018-05-21T09:58:17.761Z,37.99
2018-05-21T09:59:23.328Z,37.73
2018-05-21T10:00:28.169Z,37.49
2018-05-21T10:01:32.781Z,37.39
2018-05-21T10:02:37.455Z,37.24
2018-05-21T10:03:42.608Z,36.54
2018-05-21T10:04:47.192Z,36.63
2018-05-21T10:05:51.778Z,36.72
2018-05-21T10:06:56.403Z,36.72
2018-05-21T10:08:01.399Z,36.72
2018-05-21T10:09:06.566Z,36.33
2018-05-21T10:10:11.553Z,36.20
2018-05-21T10:11:16.631Z,36.17
2018-05-21T10:12:22.169Z,36.35
2018-05-21T10:13:26.841Z,36.22
2018-05-21T10:14:31.480Z,36.63
2018-05-21T10:15:36.112Z,36.29
2018-05-21T10:16:43.600Z,36.30
2018-05-21T10:17:48.169Z,36.57
2018-05-21T10:18:55.871Z,36.54
2018-05-21T10:20:00.532Z,36.81
2018-05-21T10:21:05.153Z,36.77
2018-05-21T10:22:09.730Z,36.72
2018-05-21T10:23:15.971Z,36.85
2018-05-21T10:24:20.741Z,37.05
2018-05-21T10:25:25.965Z,37.32
2018-05-21T10:26:30.726Z,37.13
2018-05-21T10:27:35.374Z,37.28
2018-05-21T10:28:42.467Z,37.46
2018-05-21T10:29:48.655Z,37.37
2018-05-21T10:30:53.223Z,37.37
2018-05-21T10:31:57.806Z,37.22
2018-05-21T10:33:02.480Z,36.92
2018-05-21T10:34:07.096Z,37.13
2018-05-21T10:35:11.704Z,37.06
2018-05-21T10:36:16.663Z,37.08
2018-05-21T10:37:21.260Z,37.56
2018-05-21T10:38:25.856Z,38.02
2018-05-21T10:39:31.956Z,37.46
2018-05-21T10:40:39.609Z,37.25
2018-05-21T10:41:44.214Z,37.25
2018-05-21T10:42:49.116Z,37.18
2018-05-21T10:43:53.731Z,37.18
2018-05-21T10:44:58.372Z,37.11
2018-05-21T10:46:03.131Z,36.97
2018-05-21T10:47:07.721Z,36.56
2018-05-21T10:48:12.362Z,36.65
2018-05-21T10:49:17.887Z,36.45
2018-05-21T10:50:22.554Z,36.36
2018-05-21T10:51:27.242Z,36.00
2018-05-21T10:52:31.830Z,35.97
2018-05-21T10:53:36.388Z,36.17
2018-05-21T10:54:41.002Z,36.14
2018-05-21T10:55:46.089Z,36.17
2018-05-21T10:56:50.668Z,36.28
2018-05-21T10:57:55.286Z,35.93
2018-05-21T10:58:59.921Z,35.89
2018-05-21T11:00:04.600Z,35.92
2018-05-21T11:01:09.749Z,36.02
2018-05-21T11:02:14.667Z,35.92
2018-05-21T11:03:19.307Z,35.88
2018-05-21T11:04:23.968Z,35.82
2018-05-21T11:05:28.560Z,35.63
2018-05-21T11:06:33.264Z,35.66
2018-05-21T11:07:37.830Z,35.85
2018-05-21T11:08:42.530Z,35.92
2018-05-21T11:09:47.177Z,36.05
2018-05-21T11:10:51.954Z,36.06
2018-05-21T11:11:56.538Z,35.99
2018-05-21T11:13:01.665Z,36.25
2018-05-21T11:14:06.647Z,35.99
2018-05-21T11:15:11.334Z,36.03
2018-05-21T11:16:16.252Z,36.48
2018-05-21T11:17:21.028Z,36.62
2018-05-21T11:18:25.682Z,36.70
2018-05-21T11:19:31.063Z,36.96
2018-05-21T11:20:35.720Z,37.26
2018-05-21T11:21:40.710Z,37.20
2018-05-21T11:22:45.338Z,37.02
2018-05-21T11:23:50.962Z,37.10
2018-05-21T11:24:55.636Z,36.93
2018-05-21T11:26:00.196Z,36.65
2018-05-21T11:27:05.534Z,36.24
2018-05-21T11:28:10.290Z,35.99
2018-05-21T11:29:15.069Z,35.82
2018-05-21T11:30:19.736Z,35.75
2018-05-21T11:31:24.382Z,35.55
2018-05-21T11:32:29.032Z,35.20
2018-05-21T11:33:33.916Z,35.25
2018-05-21T11:34:38.568Z,34.98
2018-05-21T11:35:43.145Z,34.71
2018-05-21T11:36:47.770Z,34.66
2018-05-21T11:37:52.344Z,34.40
2018-05-21T11:38:56.931Z,34.15
2018-05-21T11:40:01.865Z,34.09
2018-05-21T11:41:06.646Z,34.06
2018-05-21T11:42:11.212Z,33.91
2018-05-21T11:43:15.853Z,33.84
2018-05-21T11:44:20.568Z,33.72
2018-05-21T11:45:25.440Z,33.45
2018-05-21T11:46:31.533Z,33.45
2018-05-21T11:47:36.203Z,33.47
2018-05-21T11:48:40.842Z,33.64
2018-05-21T11:49:45.843Z,33.71
2018-05-21T11:50:50.409Z,33.81
2018-05-21T11:51:55.017Z,33.55
2018-05-21T11:52:59.962Z,33.30
2018-05-21T11:54:04.697Z,33.06
2018-05-21T11:55:09.293Z,32.98
2018-05-21T11:56:13.986Z,33.18
2018-05-21T11:57:18.605Z,33.08
2018-05-21T11:58:23.199Z,32.98
2018-05-21T11:59:28.229Z,32.74
2018-05-21T12:00:32.843Z,32.62
2018-05-21T12:01:38.500Z,32.90
2018-05-21T12:02:43.188Z,32.77
2018-05-21T12:03:47.845Z,32.85
2018-05-21T12:04:52.429Z,33.01
2018-05-21T12:05:57.208Z,32.92
2018-05-21T12:07:01.714Z,32.75
2018-05-21T12:08:06.199Z,32.85
2018-05-21T12:09:10.720Z,32.49
2018-05-21T12:10:15.283Z,32.63
2018-05-21T12:11:20.224Z,32.64
2018-05-21T12:12:24.864Z,32.52
2018-05-21T12:13:29.675Z,32.49
2018-05-21T12:14:34.299Z,32.81
2018-05-21T12:15:38.909Z,33.10
2018-05-21T12:16:43.566Z,33.20
2018-05-21T12:17:48.517Z,33.32
2018-05-21T12:18:53.120Z,33.35
2018-05-21T12:19:57.801Z,33.36
2018-05-21T12:21:02.487Z,33.32
2018-05-21T12:22:07.120Z,32.99
2018-05-21T12:23:11.704Z,32.82
2018-05-21T12:24:17.898Z,32.63
2018-05-21T12:25:22.584Z,32.82
2018-05-21T12:26:27.423Z,32.92
2018-05-21T12:27:32.015Z,33.12
2018-05-21T12:28:36.647Z,33.43
2018-05-21T12:29:41.198Z,33.79
2018-05-21T12:30:47.090Z,33.73
2018-05-21T12:31:51.653Z,33.78
2018-05-21T12:32:56.104Z,33.50
2018-05-21T12:34:00.750Z,33.16
2018-05-21T12:35:05.261Z,33.05
2018-05-21T12:36:09.880Z,33.11
2018-05-21T12:37:14.806Z,33.14
2018-05-21T12:38:19.400Z,33.39
2018-05-21T12:39:23.928Z,33.65
2018-05-21T12:40:28.483Z,33.02
2018-05-21T12:41:33.204Z,33.28
2018-05-21T12:42:37.733Z,33.29
2018-05-21T12:43:42.729Z,33.31
2018-05-21T12:44:47.225Z,33.10
2018-05-21T12:45:53.101Z,33.18
2018-05-21T12:46:57.792Z,33.23
2018-05-21T12:48:02.379Z,33.35
2018-05-21T12:49:06.914Z,33.98
2018-05-21T12:50:12.087Z,33.83
2018-05-21T12:51:16.613Z,33.54
2018-05-21T12:52:21.117Z,33.69
2018-05-21T12:53:26.790Z,33.40
2018-05-21T12:54:31.381Z,33.07
2018-05-21T12:55:36.056Z,33.18
2018-05-21T12:56:40.951Z,33.20
2018-05-21T12:57:45.888Z,33.09
2018-05-21T12:58:50.557Z,33.07
2018-05-21T12:59:55.396Z,33.08
2018-05-21T13:01:00.286Z,32.92
2018-05-21T13:02:05.268Z,32.48
2018-05-21T13:03:10.665Z,32.47
2018-05-21T13:04:15.469Z,32.25
2018-05-21T13:05:20.119Z,32.37
2018-05-21T13:06:24.999Z,33.05
2018-05-21T13:07:30.073Z,33.26
2018-05-21T13:08:36.332Z,33.20
2018-05-21T13:09:42.124Z,33.20
2018-05-21T13:10:46.894Z,33.27
2018-05-21T13:12:26.839Z,32.63
2018-05-21T13:13:31.576Z,32.67
2018-05-21T13:14:36.201Z,32.76
2018-05-21T13:15:40.817Z,32.66
2018-05-21T13:16:45.717Z,32.68
2018-05-21T13:17:50.378Z,33.28
2018-05-21T13:18:55.082Z,33.19
2018-05-21T13:19:59.639Z,33.18
2018-05-21T13:21:05.181Z,33.22
2018-05-21T13:22:09.829Z,33.15
2018-05-21T13:23:14.662Z,33.49
2018-05-21T13:24:19.185Z,33.55
2018-05-21T13:25:23.811Z,33.30
2018-05-21T13:26:30.450Z,33.09
2018-05-21T13:27:35.244Z,33.23
2018-05-21T13:28:39.827Z,33.31
2018-05-21T13:29:45.569Z,33.57
2018-05-21T13:30:51.035Z,33.77
2018-05-21T13:31:55.630Z,33.82
2018-05-21T13:33:00.330Z,33.83
2018-05-21T13:34:05.052Z,33.88
2018-05-21T13:35:11.517Z,33.77
2018-05-21T13:36:16.623Z,33.66
2018-05-21T13:37:21.255Z,33.45
2018-05-21T13:38:26.040Z,33.16
2018-05-21T13:39:30.789Z,33.28
2018-05-21T13:40:35.554Z,32.98
2018-05-21T13:41:40.772Z,32.79
2018-05-21T13:42:45.703Z,32.83
2018-05-21T13:43:50.512Z,32.87
2018-05-21T13:44:55.070Z,32.72
2018-05-21T13:45:59.632Z,32.84
2018-05-21T13:47:04.273Z,33.08
2018-05-21T13:48:08.914Z,33.42
2018-05-21T13:49:13.758Z,33.62
2018-05-21T13:50:18.378Z,33.55
2018-05-21T13:51:23.109Z,33.55
2018-05-21T13:52:28.112Z,33.72
2018-05-21T13:53:33.274Z,33.51
2018-05-21T13:54:37.944Z,33.80
2018-05-21T13:55:43.021Z,33.68
2018-05-21T13:56:47.658Z,33.82
2018-05-21T13:57:52.236Z,34.16
2018-05-21T13:58:57.184Z,33.91
2018-05-21T14:00:01.742Z,33.82
2018-05-21T14:01:06.295Z,33.87